sensor_id;sensor_type;location;lat;lon;timestamp;P1;durP1;ratioP1;P2;durP2;ratioP2
19446;SDS011;9862;49.462;11.054;2023-06-22T00:01:11;10.80;;;6.47;;
19446;SDS011;9862;49.462;11.054;2023-06-22T00:03:38;8.82;;;6.18;;
19446;SDS011;9862;49.462;11.054;2023-06-22T00:06:06;12.32;;;6.82;;
19446;SDS011;9862;49.462;11.054;2023-06-22T00:08:33;8.20;;;6.32;;
19446;SDS011;9862;49.462;11.054;2023-06-22T00:10:59;9.05;;;6.63;;
19446;SDS011;9862;49.462;11.054;2023-06-22T00:13:26;8.05;;;6.40;;
19446;SDS011;9862;49.462;11.054;2023-06-22T00:15:52;9.57;;;7.38;;
19446;SDS011;9862;49.462;11.054;2023-06-22T00:18:19;7.78;;;6.07;;
19446;SDS011;9862;49.462;11.054;2023-06-22T00:20:46;11.43;;;6.18;;
19446;SDS011;9862;49.462;11.054;2023-06-22T00:23:13;8.05;;;6.32;;
19446;SDS011;9862;49.462;11.054;2023-06-22T00:25:41;11.70;;;6.68;;
19446;SDS011;9862;49.462;11.054;2023-06-22T00:28:07;8.63;;;5.68;;
19446;SDS011;9862;49.462;11.054;2023-06-22T00:30:34;8.43;;;6.30;;
19446;SDS011;9862;49.462;11.054;2023-06-22T00:33:01;6.75;;;5.63;;
19446;SDS011;9862;49.462;11.054;2023-06-22T00:35:28;7.82;;;6.03;;
19446;SDS011;9862;49.462;11.054;2023-06-22T00:37:55;7.28;;;5.78;;
19446;SDS011;9862;49.462;11.054;2023-06-22T00:40:27;10.40;;;6.22;;
19446;SDS011;9862;49.462;11.054;2023-06-22T00:42:54;9.15;;;6.60;;
19446;SDS011;9862;49.462;11.054;2023-06-22T00:45:21;9.68;;;6.18;;
19446;SDS011;9862;49.462;11.054;2023-06-22T00:47:49;13.10;;;7.47;;
19446;SDS011;9862;49.462;11.054;2023-06-22T00:50:18;8.75;;;6.60;;
19446;SDS011;9862;49.462;11.054;2023-06-22T00:52:47;8.32;;;5.95;;
19446;SDS011;9862;49.462;11.054;2023-06-22T00:55:17;11.07;;;5.97;;
19446;SDS011;9862;49.462;11.054;2023-06-22T00:57:46;8.32;;;5.75;;
19446;SDS011;9862;49.462;11.054;2023-06-22T01:00:13;10.88;;;6.60;;
19446;SDS011;9862;49.462;11.054;2023-06-22T01:02:45;8.00;;;5.50;;
19446;SDS011;9862;49.462;11.054;2023-06-22T01:05:17;9.40;;;6.20;;
19446;SDS011;9862;49.462;11.054;2023-06-22T01:07:46;10.05;;;6.18;;
19446;SDS011;9862;49.462;11.054;2023-06-22T01:10:25;8.90;;;6.43;;
19446;SDS011;9862;49.462;11.054;2023-06-22T01:12:58;11.18;;;6.60;;
19446;SDS011;9862;49.462;11.054;2023-06-22T01:15:28;9.82;;;5.57;;
19446;SDS011;9862;49.462;11.054;2023-06-22T01:17:57;6.70;;;5.38;;
19446;SDS011;9862;49.462;11.054;2023-06-22T01:20:25;7.93;;;6.22;;
19446;SDS011;9862;49.462;11.054;2023-06-22T01:22:58;8.43;;;6.18;;
19446;SDS011;9862;49.462;11.054;2023-06-22T01:25:36;8.00;;;6.13;;
19446;SDS011;9862;49.462;11.054;2023-06-22T01:28:16;8.05;;;6.50;;
19446;SDS011;9862;49.462;11.054;2023-06-22T01:30:51;10.35;;;6.53;;
19446;SDS011;9862;49.462;11.054;2023-06-22T01:33:28;8.15;;;6.35;;
19446;SDS011;9862;49.462;11.054;2023-06-22T01:35:57;9.95;;;6.22;;
19446;SDS011;9862;49.462;11.054;2023-06-22T01:38:25;7.82;;;5.88;;
19446;SDS011;9862;49.462;11.054;2023-06-22T01:40:54;8.52;;;6.00;;
19446;SDS011;9862;49.462;11.054;2023-06-22T01:43:21;9.35;;;6.18;;
19446;SDS011;9862;49.462;11.054;2023-06-22T01:45:51;9.57;;;6.15;;
19446;SDS011;9862;49.462;11.054;2023-06-22T01:48:19;10.40;;;6.50;;
19446;SDS011;9862;49.462;11.054;2023-06-22T01:50:45;8.52;;;5.97;;
19446;SDS011;9862;49.462;11.054;2023-06-22T01:53:13;7.65;;;5.90;;
19446;SDS011;9862;49.462;11.054;2023-06-22T01:55:39;8.15;;;6.28;;
19446;SDS011;9862;49.462;11.054;2023-06-22T01:58:06;8.15;;;5.85;;
19446;SDS011;9862;49.462;11.054;2023-06-22T02:00:33;6.97;;;5.78;;
19446;SDS011;9862;49.462;11.054;2023-06-22T02:03:08;9.80;;;5.55;;
19446;SDS011;9862;49.462;11.054;2023-06-22T02:05:39;6.75;;;5.30;;
19446;SDS011;9862;49.462;11.054;2023-06-22T02:08:13;9.38;;;6.72;;
19446;SDS011;9862;49.462;11.054;2023-06-22T02:10:44;13.07;;;9.40;;
19446;SDS011;9862;49.462;11.054;2023-06-22T02:13:13;13.30;;;9.68;;
19446;SDS011;9862;49.462;11.054;2023-06-22T02:15:43;10.90;;;8.20;;
19446;SDS011;9862;49.462;11.054;2023-06-22T02:18:14;7.95;;;6.22;;
19446;SDS011;9862;49.462;11.054;2023-06-22T02:20:42;8.13;;;5.88;;
19446;SDS011;9862;49.462;11.054;2023-06-22T02:23:10;9.15;;;6.13;;
19446;SDS011;9862;49.462;11.054;2023-06-22T02:25:38;8.20;;;5.55;;
19446;SDS011;9862;49.462;11.054;2023-06-22T02:28:05;7.05;;;6.07;;
19446;SDS011;9862;49.462;11.054;2023-06-22T02:30:32;10.60;;;6.78;;
19446;SDS011;9862;49.462;11.054;2023-06-22T02:32:59;10.95;;;8.07;;
19446;SDS011;9862;49.462;11.054;2023-06-22T02:35:27;14.52;;;9.60;;
19446;SDS011;9862;49.462;11.054;2023-06-22T02:37:56;11.35;;;8.13;;
19446;SDS011;9862;49.462;11.054;2023-06-22T02:40:23;9.98;;;6.93;;
19446;SDS011;9862;49.462;11.054;2023-06-22T02:42:49;9.55;;;6.90;;
19446;SDS011;9862;49.462;11.054;2023-06-22T02:45:16;8.70;;;6.68;;
19446;SDS011;9862;49.462;11.054;2023-06-22T02:47:43;11.77;;;7.15;;
19446;SDS011;9862;49.462;11.054;2023-06-22T02:50:12;8.07;;;6.63;;
19446;SDS011;9862;49.462;11.054;2023-06-22T02:52:42;9.77;;;6.50;;
19446;SDS011;9862;49.462;11.054;2023-06-22T02:55:09;10.15;;;7.93;;
19446;SDS011;9862;49.462;11.054;2023-06-22T02:57:36;12.15;;;8.63;;
19446;SDS011;9862;49.462;11.054;2023-06-22T03:00:03;13.00;;;8.27;;
19446;SDS011;9862;49.462;11.054;2023-06-22T03:02:41;13.07;;;8.20;;
19446;SDS011;9862;49.462;11.054;2023-06-22T03:05:08;10.02;;;7.60;;
19446;SDS011;9862;49.462;11.054;2023-06-22T03:07:38;12.90;;;7.88;;
19446;SDS011;9862;49.462;11.054;2023-06-22T03:10:07;12.93;;;8.20;;
19446;SDS011;9862;49.462;11.054;2023-06-22T03:12:34;10.18;;;8.07;;
19446;SDS011;9862;49.462;11.054;2023-06-22T03:15:01;12.00;;;8.60;;
19446;SDS011;9862;49.462;11.054;2023-06-22T03:17:28;11.98;;;8.30;;
19446;SDS011;9862;49.462;11.054;2023-06-22T03:19:54;12.93;;;7.65;;
19446;SDS011;9862;49.462;11.054;2023-06-22T03:22:21;12.40;;;8.18;;
19446;SDS011;9862;49.462;11.054;2023-06-22T03:24:48;11.07;;;9.02;;
19446;SDS011;9862;49.462;11.054;2023-06-22T03:27:16;11.98;;;8.98;;
19446;SDS011;9862;49.462;11.054;2023-06-22T03:29:42;15.27;;;11.43;;
19446;SDS011;9862;49.462;11.054;2023-06-22T03:32:09;12.73;;;8.15;;
19446;SDS011;9862;49.462;11.054;2023-06-22T03:34:36;16.73;;;12.23;;
19446;SDS011;9862;49.462;11.054;2023-06-22T03:37:03;14.13;;;11.15;;
19446;SDS011;9862;49.462;11.054;2023-06-22T03:39:31;12.63;;;9.65;;
19446;SDS011;9862;49.462;11.054;2023-06-22T03:41:58;12.82;;;9.15;;
19446;SDS011;9862;49.462;11.054;2023-06-22T03:44:25;12.40;;;9.05;;
19446;SDS011;9862;49.462;11.054;2023-06-22T03:46:52;12.15;;;8.55;;
19446;SDS011;9862;49.462;11.054;2023-06-22T03:49:19;20.70;;;13.65;;
19446;SDS011;9862;49.462;11.054;2023-06-22T03:51:45;21.52;;;12.23;;
19446;SDS011;9862;49.462;11.054;2023-06-22T03:54:12;13.40;;;9.38;;
19446;SDS011;9862;49.462;11.054;2023-06-22T03:56:38;11.90;;;8.20;;
19446;SDS011;9862;49.462;11.054;2023-06-22T03:59:05;10.70;;;8.00;;
19446;SDS011;9862;49.462;11.054;2023-06-22T04:01:33;10.85;;;7.78;;
19446;SDS011;9862;49.462;11.054;2023-06-22T04:03:59;10.07;;;6.70;;
19446;SDS011;9862;49.462;11.054;2023-06-22T04:06:26;10.00;;;7.40;;
19446;SDS011;9862;49.462;11.054;2023-06-22T04:08:52;10.93;;;7.35;;
19446;SDS011;9862;49.462;11.054;2023-06-22T04:11:19;13.32;;;8.60;;
19446;SDS011;9862;49.462;11.054;2023-06-22T04:13:46;13.98;;;9.30;;
19446;SDS011;9862;49.462;11.054;2023-06-22T04:16:13;13.85;;;9.27;;
19446;SDS011;9862;49.462;11.054;2023-06-22T04:18:41;11.20;;;8.15;;
19446;SDS011;9862;49.462;11.054;2023-06-22T04:21:09;12.18;;;8.32;;
19446;SDS011;9862;49.462;11.054;2023-06-22T04:23:36;8.02;;;6.75;;
19446;SDS011;9862;49.462;11.054;2023-06-22T04:26:03;8.50;;;7.05;;
19446;SDS011;9862;49.462;11.054;2023-06-22T04:28:29;11.65;;;8.15;;
19446;SDS011;9862;49.462;11.054;2023-06-22T04:31:00;9.00;;;6.60;;
19446;SDS011;9862;49.462;11.054;2023-06-22T04:33:27;11.65;;;8.00;;
19446;SDS011;9862;49.462;11.054;2023-06-22T04:35:55;14.20;;;8.88;;
19446;SDS011;9862;49.462;11.054;2023-06-22T04:38:23;9.98;;;7.40;;
19446;SDS011;9862;49.462;11.054;2023-06-22T04:40:50;9.63;;;6.82;;
19446;SDS011;9862;49.462;11.054;2023-06-22T04:43:18;10.75;;;7.90;;
19446;SDS011;9862;49.462;11.054;2023-06-22T04:45:44;7.72;;;6.53;;
19446;SDS011;9862;49.462;11.054;2023-06-22T04:48:11;7.88;;;6.47;;
19446;SDS011;9862;49.462;11.054;2023-06-22T04:50:41;9.93;;;7.53;;
19446;SDS011;9862;49.462;11.054;2023-06-22T04:53:08;9.27;;;6.95;;
19446;SDS011;9862;49.462;11.054;2023-06-22T04:55:37;10.27;;;7.32;;
19446;SDS011;9862;49.462;11.054;2023-06-22T04:58:06;9.80;;;7.57;;
19446;SDS011;9862;49.462;11.054;2023-06-22T05:00:33;20.15;;;12.30;;
19446;SDS011;9862;49.462;11.054;2023-06-22T05:03:01;21.77;;;14.25;;
19446;SDS011;9862;49.462;11.054;2023-06-22T05:05:28;13.90;;;9.73;;
19446;SDS011;9862;49.462;11.054;2023-06-22T05:07:56;14.10;;;9.75;;
19446;SDS011;9862;49.462;11.054;2023-06-22T05:10:26;10.38;;;8.63;;
19446;SDS011;9862;49.462;11.054;2023-06-22T05:12:53;9.93;;;7.22;;
19446;SDS011;9862;49.462;11.054;2023-06-22T05:15:20;11.13;;;7.97;;
19446;SDS011;9862;49.462;11.054;2023-06-22T05:17:48;9.95;;;7.43;;
19446;SDS011;9862;49.462;11.054;2023-06-22T05:20:14;10.88;;;7.82;;
19446;SDS011;9862;49.462;11.054;2023-06-22T05:22:43;10.10;;;7.25;;
19446;SDS011;9862;49.462;11.054;2023-06-22T05:25:10;9.90;;;6.95;;
19446;SDS011;9862;49.462;11.054;2023-06-22T05:27:39;9.32;;;7.43;;
19446;SDS011;9862;49.462;11.054;2023-06-22T05:30:06;14.25;;;7.75;;
19446;SDS011;9862;49.462;11.054;2023-06-22T05:32:33;12.15;;;7.63;;
19446;SDS011;9862;49.462;11.054;2023-06-22T05:35:00;12.38;;;8.30;;
19446;SDS011;9862;49.462;11.054;2023-06-22T05:37:26;9.60;;;7.05;;
19446;SDS011;9862;49.462;11.054;2023-06-22T05:39:54;12.65;;;8.35;;
19446;SDS011;9862;49.462;11.054;2023-06-22T05:42:22;11.32;;;8.32;;
19446;SDS011;9862;49.462;11.054;2023-06-22T05:44:51;10.77;;;8.25;;
19446;SDS011;9862;49.462;11.054;2023-06-22T05:47:18;11.90;;;8.93;;
19446;SDS011;9862;49.462;11.054;2023-06-22T05:49:45;16.92;;;8.73;;
19446;SDS011;9862;49.462;11.054;2023-06-22T05:52:11;10.65;;;8.35;;
19446;SDS011;9862;49.462;11.054;2023-06-22T05:54:38;11.70;;;8.10;;
19446;SDS011;9862;49.462;11.054;2023-06-22T05:57:06;14.55;;;8.40;;
19446;SDS011;9862;49.462;11.054;2023-06-22T05:59:33;10.20;;;7.75;;
19446;SDS011;9862;49.462;11.054;2023-06-22T06:02:01;11.60;;;7.90;;
19446;SDS011;9862;49.462;11.054;2023-06-22T06:04:28;11.32;;;8.40;;
19446;SDS011;9862;49.462;11.054;2023-06-22T06:06:55;10.18;;;7.88;;
19446;SDS011;9862;49.462;11.054;2023-06-22T06:09:21;10.90;;;7.80;;
19446;SDS011;9862;49.462;11.054;2023-06-22T06:11:48;10.35;;;8.32;;
19446;SDS011;9862;49.462;11.054;2023-06-22T06:14:14;11.75;;;7.63;;
19446;SDS011;9862;49.462;11.054;2023-06-22T06:16:42;10.80;;;7.35;;
19446;SDS011;9862;49.462;11.054;2023-06-22T06:19:13;9.32;;;7.45;;
19446;SDS011;9862;49.462;11.054;2023-06-22T06:21:39;12.93;;;8.23;;
19446;SDS011;9862;49.462;11.054;2023-06-22T06:24:06;11.10;;;9.27;;
19446;SDS011;9862;49.462;11.054;2023-06-22T06:26:33;11.30;;;7.97;;
19446;SDS011;9862;49.462;11.054;2023-06-22T06:29:00;11.63;;;8.93;;
19446;SDS011;9862;49.462;11.054;2023-06-22T06:31:28;9.93;;;7.55;;
19446;SDS011;9862;49.462;11.054;2023-06-22T06:33:55;11.60;;;7.65;;
19446;SDS011;9862;49.462;11.054;2023-06-22T06:36:23;9.43;;;7.53;;
19446;SDS011;9862;49.462;11.054;2023-06-22T06:38:50;9.65;;;7.88;;
19446;SDS011;9862;49.462;11.054;2023-06-22T06:41:17;9.13;;;6.80;;
19446;SDS011;9862;49.462;11.054;2023-06-22T06:43:43;11.77;;;7.93;;
19446;SDS011;9862;49.462;11.054;2023-06-22T06:46:10;9.85;;;7.30;;
19446;SDS011;9862;49.462;11.054;2023-06-22T06:48:37;8.65;;;7.55;;
19446;SDS011;9862;49.462;11.054;2023-06-22T06:51:04;11.10;;;7.30;;
19446;SDS011;9862;49.462;11.054;2023-06-22T06:53:35;10.45;;;7.13;;
19446;SDS011;9862;49.462;11.054;2023-06-22T06:56:02;9.68;;;8.23;;
19446;SDS011;9862;49.462;11.054;2023-06-22T06:58:30;9.77;;;6.90;;
19446;SDS011;9862;49.462;11.054;2023-06-22T07:00:56;9.18;;;7.43;;
19446;SDS011;9862;49.462;11.054;2023-06-22T07:03:23;8.65;;;7.10;;
19446;SDS011;9862;49.462;11.054;2023-06-22T07:05:50;9.20;;;7.28;;
19446;SDS011;9862;49.462;11.054;2023-06-22T07:08:17;9.93;;;7.10;;
19446;SDS011;9862;49.462;11.054;2023-06-22T07:10:45;10.15;;;7.55;;
19446;SDS011;9862;49.462;11.054;2023-06-22T07:13:11;9.15;;;7.43;;
19446;SDS011;9862;49.462;11.054;2023-06-22T07:15:38;9.57;;;6.93;;
19446;SDS011;9862;49.462;11.054;2023-06-22T07:18:05;8.38;;;7.00;;
19446;SDS011;9862;49.462;11.054;2023-06-22T07:20:32;10.40;;;7.32;;
19446;SDS011;9862;49.462;11.054;2023-06-22T07:22:58;11.98;;;6.70;;
19446;SDS011;9862;49.462;11.054;2023-06-22T07:25:25;10.60;;;7.53;;
19446;SDS011;9862;49.462;11.054;2023-06-22T07:28:00;10.90;;;6.88;;
19446;SDS011;9862;49.462;11.054;2023-06-22T07:30:28;10.35;;;6.93;;
19446;SDS011;9862;49.462;11.054;2023-06-22T07:32:56;9.88;;;7.78;;
19446;SDS011;9862;49.462;11.054;2023-06-22T07:35:23;9.35;;;7.13;;
19446;SDS011;9862;49.462;11.054;2023-06-22T07:37:50;7.82;;;6.63;;
19446;SDS011;9862;49.462;11.054;2023-06-22T07:40:17;10.43;;;6.85;;
19446;SDS011;9862;49.462;11.054;2023-06-22T07:42:44;8.35;;;7.05;;
19446;SDS011;9862;49.462;11.054;2023-06-22T07:45:14;9.00;;;6.45;;
19446;SDS011;9862;49.462;11.054;2023-06-22T07:47:41;7.53;;;6.22;;
19446;SDS011;9862;49.462;11.054;2023-06-22T07:50:08;9.02;;;6.63;;
19446;SDS011;9862;49.462;11.054;2023-06-22T07:52:35;7.28;;;6.32;;
19446;SDS011;9862;49.462;11.054;2023-06-22T07:55:02;7.97;;;7.10;;
19446;SDS011;9862;49.462;11.054;2023-06-22T07:57:30;7.93;;;6.20;;
19446;SDS011;9862;49.462;11.054;2023-06-22T07:59:58;7.70;;;5.95;;
19446;SDS011;9862;49.462;11.054;2023-06-22T08:02:27;7.78;;;5.63;;
19446;SDS011;9862;49.462;11.054;2023-06-22T08:04:53;9.15;;;5.53;;
19446;SDS011;9862;49.462;11.054;2023-06-22T08:07:20;9.38;;;6.88;;
19446;SDS011;9862;49.462;11.054;2023-06-22T08:09:47;13.27;;;9.05;;
19446;SDS011;9862;49.462;11.054;2023-06-22T08:12:14;9.25;;;6.25;;
19446;SDS011;9862;49.462;11.054;2023-06-22T08:14:41;7.15;;;5.18;;
19446;SDS011;9862;49.462;11.054;2023-06-22T08:17:08;6.38;;;4.60;;
19446;SDS011;9862;49.462;11.054;2023-06-22T08:19:37;8.50;;;5.53;;
19446;SDS011;9862;49.462;11.054;2023-06-22T08:22:05;6.30;;;5.10;;
19446;SDS011;9862;49.462;11.054;2023-06-22T08:24:31;7.18;;;5.40;;
19446;SDS011;9862;49.462;11.054;2023-06-22T08:26:58;7.50;;;5.85;;
19446;SDS011;9862;49.462;11.054;2023-06-22T08:29:25;6.68;;;5.38;;
19446;SDS011;9862;49.462;11.054;2023-06-22T08:31:52;6.07;;;5.00;;
19446;SDS011;9862;49.462;11.054;2023-06-22T08:34:18;8.63;;;5.22;;
19446;SDS011;9862;49.462;11.054;2023-06-22T08:36:51;7.50;;;5.20;;
19446;SDS011;9862;49.462;11.054;2023-06-22T08:39:18;10.95;;;5.47;;
19446;SDS011;9862;49.462;11.054;2023-06-22T08:41:45;9.00;;;4.88;;
19446;SDS011;9862;49.462;11.054;2023-06-22T08:44:12;6.68;;;4.82;;
19446;SDS011;9862;49.462;11.054;2023-06-22T08:46:38;7.43;;;5.57;;
19446;SDS011;9862;49.462;11.054;2023-06-22T08:49:05;9.25;;;5.35;;
19446;SDS011;9862;49.462;11.054;2023-06-22T08:51:32;12.07;;;5.30;;
19446;SDS011;9862;49.462;11.054;2023-06-22T08:54:00;7.78;;;5.10;;
19446;SDS011;9862;49.462;11.054;2023-06-22T08:56:27;6.97;;;5.15;;
19446;SDS011;9862;49.462;11.054;2023-06-22T08:58:54;8.43;;;4.80;;
19446;SDS011;9862;49.462;11.054;2023-06-22T09:01:21;7.55;;;4.80;;
19446;SDS011;9862;49.462;11.054;2023-06-22T09:03:48;6.10;;;5.18;;
19446;SDS011;9862;49.462;11.054;2023-06-22T09:06:20;10.55;;;5.47;;
19446;SDS011;9862;49.462;11.054;2023-06-22T09:08:47;9.15;;;5.38;;
19446;SDS011;9862;49.462;11.054;2023-06-22T09:11:15;7.50;;;5.28;;
19446;SDS011;9862;49.462;11.054;2023-06-22T09:13:42;10.23;;;6.53;;
19446;SDS011;9862;49.462;11.054;2023-06-22T09:16:09;8.05;;;5.20;;
19446;SDS011;9862;49.462;11.054;2023-06-22T09:18:37;8.43;;;5.50;;
19446;SDS011;9862;49.462;11.054;2023-06-22T09:21:03;8.48;;;5.18;;
19446;SDS011;9862;49.462;11.054;2023-06-22T09:23:30;8.73;;;5.43;;
19446;SDS011;9862;49.462;11.054;2023-06-22T09:25:57;9.52;;;5.28;;
19446;SDS011;9862;49.462;11.054;2023-06-22T09:28:25;7.90;;;5.30;;
19446;SDS011;9862;49.462;11.054;2023-06-22T09:30:51;10.48;;;6.40;;
19446;SDS011;9862;49.462;11.054;2023-06-22T09:33:24;10.77;;;5.25;;
19446;SDS011;9862;49.462;11.054;2023-06-22T09:35:51;8.93;;;5.15;;
19446;SDS011;9862;49.462;11.054;2023-06-22T09:38:18;9.05;;;5.25;;
19446;SDS011;9862;49.462;11.054;2023-06-22T09:40:44;11.07;;;5.53;;
19446;SDS011;9862;49.462;11.054;2023-06-22T09:43:11;7.00;;;5.25;;
19446;SDS011;9862;49.462;11.054;2023-06-22T09:45:39;10.40;;;5.15;;
19446;SDS011;9862;49.462;11.054;2023-06-22T09:48:05;9.50;;;4.57;;
19446;SDS011;9862;49.462;11.054;2023-06-22T09:50:32;10.13;;;5.03;;
19446;SDS011;9862;49.462;11.054;2023-06-22T09:52:59;7.10;;;5.40;;
19446;SDS011;9862;49.462;11.054;2023-06-22T09:55:25;17.00;;;6.70;;
19446;SDS011;9862;49.462;11.054;2023-06-22T09:57:52;12.15;;;5.72;;
19446;SDS011;9862;49.462;11.054;2023-06-22T10:00:19;8.57;;;5.22;;
19446;SDS011;9862;49.462;11.054;2023-06-22T10:02:48;12.27;;;5.45;;
19446;SDS011;9862;49.462;11.054;2023-06-22T10:05:15;10.68;;;5.05;;
19446;SDS011;9862;49.462;11.054;2023-06-22T10:07:42;10.07;;;5.07;;
19446;SDS011;9862;49.462;11.054;2023-06-22T10:10:09;11.25;;;5.38;;
19446;SDS011;9862;49.462;11.054;2023-06-22T10:12:36;7.28;;;4.75;;
19446;SDS011;9862;49.462;11.054;2023-06-22T10:15:03;9.15;;;4.85;;
19446;SDS011;9862;49.462;11.054;2023-06-22T10:17:30;9.38;;;4.95;;
19446;SDS011;9862;49.462;11.054;2023-06-22T10:19:58;7.25;;;5.05;;
19446;SDS011;9862;49.462;11.054;2023-06-22T10:22:25;8.25;;;5.00;;
19446;SDS011;9862;49.462;11.054;2023-06-22T10:24:52;9.15;;;5.60;;
19446;SDS011;9862;49.462;11.054;2023-06-22T10:27:19;8.13;;;4.90;;
19446;SDS011;9862;49.462;11.054;2023-06-22T10:29:45;8.73;;;6.07;;
19446;SDS011;9862;49.462;11.054;2023-06-22T10:32:12;12.88;;;5.30;;
19446;SDS011;9862;49.462;11.054;2023-06-22T10:34:38;8.60;;;5.00;;
19446;SDS011;9862;49.462;11.054;2023-06-22T10:37:06;8.38;;;5.60;;
19446;SDS011;9862;49.462;11.054;2023-06-22T10:39:33;8.15;;;5.40;;
19446;SDS011;9862;49.462;11.054;2023-06-22T10:42:00;6.68;;;5.00;;
19446;SDS011;9862;49.462;11.054;2023-06-22T10:44:26;12.02;;;5.50;;
19446;SDS011;9862;49.462;11.054;2023-06-22T10:46:53;9.43;;;5.85;;
19446;SDS011;9862;49.462;11.054;2023-06-22T10:49:19;9.70;;;6.15;;
19446;SDS011;9862;49.462;11.054;2023-06-22T10:51:46;10.38;;;5.65;;
19446;SDS011;9862;49.462;11.054;2023-06-22T10:54:14;14.70;;;5.75;;
19446;SDS011;9862;49.462;11.054;2023-06-22T10:56:43;11.85;;;5.63;;
19446;SDS011;9862;49.462;11.054;2023-06-22T10:59:09;12.45;;;6.07;;
19446;SDS011;9862;49.462;11.054;2023-06-22T11:01:36;9.40;;;5.85;;
19446;SDS011;9862;49.462;11.054;2023-06-22T11:04:03;11.07;;;5.68;;
19446;SDS011;9862;49.462;11.054;2023-06-22T11:06:30;9.35;;;5.93;;
19446;SDS011;9862;49.462;11.054;2023-06-22T11:08:56;10.88;;;6.13;;
19446;SDS011;9862;49.462;11.054;2023-06-22T11:11:25;9.02;;;5.40;;
19446;SDS011;9862;49.462;11.054;2023-06-22T11:13:52;11.32;;;5.63;;
19446;SDS011;9862;49.462;11.054;2023-06-22T11:16:18;9.50;;;5.45;;
19446;SDS011;9862;49.462;11.054;2023-06-22T11:18:45;9.90;;;5.30;;
19446;SDS011;9862;49.462;11.054;2023-06-22T11:21:11;12.18;;;5.95;;
19446;SDS011;9862;49.462;11.054;2023-06-22T11:23:38;9.50;;;5.60;;
19446;SDS011;9862;49.462;11.054;2023-06-22T11:26:05;10.27;;;5.95;;
19446;SDS011;9862;49.462;11.054;2023-06-22T11:28:33;10.80;;;6.30;;
19446;SDS011;9862;49.462;11.054;2023-06-22T11:30:59;13.10;;;6.07;;
19446;SDS011;9862;49.462;11.054;2023-06-22T11:33:26;9.15;;;5.65;;
19446;SDS011;9862;49.462;11.054;2023-06-22T11:35:53;10.05;;;5.53;;
19446;SDS011;9862;49.462;11.054;2023-06-22T11:38:21;9.10;;;5.55;;
19446;SDS011;9862;49.462;11.054;2023-06-22T11:40:48;7.78;;;5.55;;
19446;SDS011;9862;49.462;11.054;2023-06-22T11:43:14;12.13;;;5.78;;
19446;SDS011;9862;49.462;11.054;2023-06-22T11:45:42;13.80;;;5.95;;
19446;SDS011;9862;49.462;11.054;2023-06-22T11:48:09;10.40;;;5.50;;
19446;SDS011;9862;49.462;11.054;2023-06-22T11:50:36;13.25;;;6.32;;
19446;SDS011;9862;49.462;11.054;2023-06-22T11:53:02;10.52;;;5.70;;
19446;SDS011;9862;49.462;11.054;2023-06-22T11:55:29;9.18;;;5.78;;
19446;SDS011;9862;49.462;11.054;2023-06-22T11:57:56;12.13;;;5.55;;
19446;SDS011;9862;49.462;11.054;2023-06-22T12:00:27;10.18;;;6.55;;
19446;SDS011;9862;49.462;11.054;2023-06-22T12:02:55;9.32;;;5.63;;
19446;SDS011;9862;49.462;11.054;2023-06-22T12:05:22;10.57;;;6.50;;
19446;SDS011;9862;49.462;11.054;2023-06-22T12:07:49;11.68;;;6.07;;
19446;SDS011;9862;49.462;11.054;2023-06-22T12:10:18;12.63;;;5.47;;
19446;SDS011;9862;49.462;11.054;2023-06-22T12:12:46;10.05;;;5.38;;
19446;SDS011;9862;49.462;11.054;2023-06-22T12:15:13;10.05;;;5.38;;
19446;SDS011;9862;49.462;11.054;2023-06-22T12:17:39;11.27;;;5.85;;
19446;SDS011;9862;49.462;11.054;2023-06-22T12:20:08;10.63;;;6.30;;
19446;SDS011;9862;49.462;11.054;2023-06-22T12:22:35;10.23;;;5.55;;
19446;SDS011;9862;49.462;11.054;2023-06-22T12:25:03;11.25;;;5.88;;
19446;SDS011;9862;49.462;11.054;2023-06-22T12:27:29;11.60;;;5.68;;
19446;SDS011;9862;49.462;11.054;2023-06-22T12:29:56;14.55;;;6.35;;
19446;SDS011;9862;49.462;11.054;2023-06-22T12:32:23;9.73;;;6.00;;
19446;SDS011;9862;49.462;11.054;2023-06-22T12:34:50;11.07;;;6.97;;
19446;SDS011;9862;49.462;11.054;2023-06-22T12:37:18;8.65;;;5.78;;
19446;SDS011;9862;49.462;11.054;2023-06-22T12:39:45;8.57;;;5.15;;
19446;SDS011;9862;49.462;11.054;2023-06-22T12:42:11;8.63;;;5.93;;
19446;SDS011;9862;49.462;11.054;2023-06-22T12:44:38;9.15;;;5.22;;
19446;SDS011;9862;49.462;11.054;2023-06-22T12:47:06;10.82;;;5.82;;
19446;SDS011;9862;49.462;11.054;2023-06-22T12:49:33;9.43;;;6.53;;
19446;SDS011;9862;49.462;11.054;2023-06-22T12:52:00;9.63;;;5.82;;
19446;SDS011;9862;49.462;11.054;2023-06-22T12:54:28;13.73;;;6.18;;
19446;SDS011;9862;49.462;11.054;2023-06-22T12:56:55;10.88;;;6.00;;
19446;SDS011;9862;49.462;11.054;2023-06-22T12:59:22;10.95;;;5.25;;
19446;SDS011;9862;49.462;11.054;2023-06-22T13:01:49;10.20;;;6.00;;
19446;SDS011;9862;49.462;11.054;2023-06-22T13:04:15;12.70;;;6.97;;
19446;SDS011;9862;49.462;11.054;2023-06-22T13:06:43;12.20;;;6.32;;
19446;SDS011;9862;49.462;11.054;2023-06-22T13:09:12;14.38;;;6.30;;
19446;SDS011;9862;49.462;11.054;2023-06-22T13:11:41;12.57;;;6.28;;
19446;SDS011;9862;49.462;11.054;2023-06-22T13:14:07;15.13;;;6.60;;
19446;SDS011;9862;49.462;11.054;2023-06-22T13:16:34;12.43;;;6.18;;
19446;SDS011;9862;49.462;11.054;2023-06-22T13:19:01;13.80;;;8.13;;
19446;SDS011;9862;49.462;11.054;2023-06-22T13:21:27;12.80;;;7.68;;
19446;SDS011;9862;49.462;11.054;2023-06-22T13:23:54;11.20;;;6.60;;
19446;SDS011;9862;49.462;11.054;2023-06-22T13:26:20;14.80;;;7.05;;
19446;SDS011;9862;49.462;11.054;2023-06-22T13:28:49;13.38;;;6.10;;
19446;SDS011;9862;49.462;11.054;2023-06-22T13:31:15;12.85;;;5.70;;
19446;SDS011;9862;49.462;11.054;2023-06-22T13:33:42;14.13;;;5.78;;
19446;SDS011;9862;49.462;11.054;2023-06-22T13:36:10;12.18;;;6.32;;
19446;SDS011;9862;49.462;11.054;2023-06-22T13:38:37;11.32;;;5.63;;
19446;SDS011;9862;49.462;11.054;2023-06-22T13:41:04;9.20;;;6.53;;
19446;SDS011;9862;49.462;11.054;2023-06-22T13:43:31;11.88;;;6.00;;
19446;SDS011;9862;49.462;11.054;2023-06-22T13:45:59;12.10;;;5.97;;
19446;SDS011;9862;49.462;11.054;2023-06-22T13:48:25;13.90;;;6.72;;
19446;SDS011;9862;49.462;11.054;2023-06-22T13:50:53;12.63;;;6.35;;
19446;SDS011;9862;49.462;11.054;2023-06-22T13:53:20;10.75;;;6.13;;
19446;SDS011;9862;49.462;11.054;2023-06-22T13:55:47;9.75;;;5.90;;
19446;SDS011;9862;49.462;11.054;2023-06-22T13:58:14;12.55;;;5.75;;
19446;SDS011;9862;49.462;11.054;2023-06-22T14:00:40;8.07;;;6.28;;
19446;SDS011;9862;49.462;11.054;2023-06-22T14:03:08;11.40;;;5.57;;
19446;SDS011;9862;49.462;11.054;2023-06-22T14:05:35;15.10;;;6.22;;
19446;SDS011;9862;49.462;11.054;2023-06-22T14:08:02;11.30;;;6.18;;
19446;SDS011;9862;49.462;11.054;2023-06-22T14:10:28;9.52;;;5.70;;
19446;SDS011;9862;49.462;11.054;2023-06-22T14:12:55;11.77;;;5.70;;
19446;SDS011;9862;49.462;11.054;2023-06-22T14:15:21;16.63;;;6.00;;
19446;SDS011;9862;49.462;11.054;2023-06-22T14:17:48;14.00;;;6.00;;
19446;SDS011;9862;49.462;11.054;2023-06-22T14:20:16;12.57;;;5.43;;
19446;SDS011;9862;49.462;11.054;2023-06-22T14:22:42;10.52;;;5.72;;
19446;SDS011;9862;49.462;11.054;2023-06-22T14:25:09;9.07;;;5.60;;
19446;SDS011;9862;49.462;11.054;2023-06-22T14:27:35;10.23;;;6.70;;
19446;SDS011;9862;49.462;11.054;2023-06-22T14:30:02;9.68;;;5.63;;
19446;SDS011;9862;49.462;11.054;2023-06-22T14:32:29;12.05;;;6.93;;
19446;SDS011;9862;49.462;11.054;2023-06-22T14:34:56;18.25;;;6.97;;
19446;SDS011;9862;49.462;11.054;2023-06-22T14:37:24;11.23;;;6.93;;
19446;SDS011;9862;49.462;11.054;2023-06-22T14:39:50;13.45;;;6.15;;
19446;SDS011;9862;49.462;11.054;2023-06-22T14:42:17;10.70;;;6.13;;